sensor_id;sensor_type;location;lat;lon;timestamp;temperature;humidity
13093;DHT22;6612;49.568;11.000;2022-10-16T00:01:05;19.50;77.00
13093;DHT22;6612;49.568;11.000;2022-10-16T00:03:33;19.50;76.90
13093;DHT22;6612;49.568;11.000;2022-10-16T00:06:00;19.40;76.80
13093;DHT22;6612;49.568;11.000;2022-10-16T00:08:28;19.40;76.80
13093;DHT22;6612;49.568;11.000;2022-10-16T00:10:59;19.40;76.80
13093;DHT22;6612;49.568;11.000;2022-10-16T00:13:28;19.40;76.80
13093;DHT22;6612;49.568;11.000;2022-10-16T00:15:56;19.40;77.00
13093;DHT22;6612;49.568;11.000;2022-10-16T00:18:23;19.40;77.10
13093;DHT22;6612;49.568;11.000;2022-10-16T00:20:51;19.40;77.00
13093;DHT22;6612;49.568;11.000;2022-10-16T00:23:18;19.40;76.90
13093;DHT22;6612;49.568;11.000;2022-10-16T00:25:53;19.40;76.80
13093;DHT22;6612;49.568;11.000;2022-10-16T00:28:21;19.40;76.80
13093;DHT22;6612;49.568;11.000;2022-10-16T00:30:49;19.40;76.70
13093;DHT22;6612;49.568;11.000;2022-10-16T00:33:16;19.40;76.70
13093;DHT22;6612;49.568;11.000;2022-10-16T00:35:43;19.40;76.80
13093;DHT22;6612;49.568;11.000;2022-10-16T00:38:10;19.40;76.80
13093;DHT22;6612;49.568;11.000;2022-10-16T00:40:37;19.40;76.80
13093;DHT22;6612;49.568;11.000;2022-10-16T00:43:12;19.30;76.80
13093;DHT22;6612;49.568;11.000;2022-10-16T00:45:39;19.30;76.80
13093;DHT22;6612;49.568;11.000;2022-10-16T00:48:11;19.30;76.90
13093;DHT22;6612;49.568;11.000;2022-10-16T00:50:40;19.30;76.80
13093;DHT22;6612;49.568;11.000;2022-10-16T00:53:10;19.30;76.80
13093;DHT22;6612;49.568;11.000;2022-10-16T00:55:37;19.30;76.80
13093;DHT22;6612;49.568;11.000;2022-10-16T00:58:04;19.30;76.90
13093;DHT22;6612;49.568;11.000;2022-10-16T01:00:32;19.30;77.00
13093;DHT22;6612;49.568;11.000;2022-10-16T01:03:00;19.30;77.10
13093;DHT22;6612;49.568;11.000;2022-10-16T01:05:33;19.30;77.10
13093;DHT22;6612;49.568;11.000;2022-10-16T01:08:09;19.30;77.20
13093;DHT22;6612;49.568;11.000;2022-10-16T01:10:40;19.30;77.10
13093;DHT22;6612;49.568;11.000;2022-10-16T01:13:10;19.30;77.20
13093;DHT22;6612;49.568;11.000;2022-10-16T01:15:42;19.30;77.40
13093;DHT22;6612;49.568;11.000;2022-10-16T01:18:15;19.30;77.30
13093;DHT22;6612;49.568;11.000;2022-10-16T01:20:46;19.30;77.40
13093;DHT22;6612;49.568;11.000;2022-10-16T01:23:27;19.30;77.40
13093;DHT22;6612;49.568;11.000;2022-10-16T01:26:18;19.30;77.30
13093;DHT22;6612;49.568;11.000;2022-10-16T01:28:52;19.30;77.20
13093;DHT22;6612;49.568;11.000;2022-10-16T01:31:24;19.30;77.20
13093;DHT22;6612;49.568;11.000;2022-10-16T01:33:57;19.30;77.30
13093;DHT22;6612;49.568;11.000;2022-10-16T01:36:29;19.30;77.50
13093;DHT22;6612;49.568;11.000;2022-10-16T01:39:01;19.30;77.50
13093;DHT22;6612;49.568;11.000;2022-10-16T01:41:34;19.30;77.50
13093;DHT22;6612;49.568;11.000;2022-10-16T01:44:06;19.30;77.30
13093;DHT22;6612;49.568;11.000;2022-10-16T01:46:37;19.30;77.40
13093;DHT22;6612;49.568;11.000;2022-10-16T01:49:06;19.30;77.40
13093;DHT22;6612;49.568;11.000;2022-10-16T01:51:34;19.30;77.40
13093;DHT22;6612;49.568;11.000;2022-10-16T01:54:02;19.20;77.40
13093;DHT22;6612;49.568;11.000;2022-10-16T01:56:31;19.20;77.50
13093;DHT22;6612;49.568;11.000;2022-10-16T01:59:02;19.20;77.50
13093;DHT22;6612;49.568;11.000;2022-10-16T02:01:34;19.20;77.60
13093;DHT22;6612;49.568;11.000;2022-10-16T02:04:07;19.20;77.70
13093;DHT22;6612;49.568;11.000;2022-10-16T02:06:35;19.20;77.90
13093;DHT22;6612;49.568;11.000;2022-10-16T02:09:03;19.30;78.10
13093;DHT22;6612;49.568;11.000;2022-10-16T02:11:30;19.30;78.10
13093;DHT22;6612;49.568;11.000;2022-10-16T02:14:00;19.30;78.10
13093;DHT22;6612;49.568;11.000;2022-10-16T02:16:35;19.30;78.10
13093;DHT22;6612;49.568;11.000;2022-10-16T02:19:02;19.30;78.00
13093;DHT22;6612;49.568;11.000;2022-10-16T02:21:33;19.30;78.10
13093;DHT22;6612;49.568;11.000;2022-10-16T02:24:08;19.30;78.00
13093;DHT22;6612;49.568;11.000;2022-10-16T02:26:39;19.30;77.90
13093;DHT22;6612;49.568;11.000;2022-10-16T02:29:12;19.30;78.00
13093;DHT22;6612;49.568;11.000;2022-10-16T02:31:45;19.40;78.10
13093;DHT22;6612;49.568;11.000;2022-10-16T02:34:14;19.50;77.50
13093;DHT22;6612;49.568;11.000;2022-10-16T02:36:42;19.30;77.90
13093;DHT22;6612;49.568;11.000;2022-10-16T02:39:10;19.40;77.90
13093;DHT22;6612;49.568;11.000;2022-10-16T02:41:38;19.40;77.90
13093;DHT22;6612;49.568;11.000;2022-10-16T02:44:05;19.30;77.70
13093;DHT22;6612;49.568;11.000;2022-10-16T02:46:32;19.30;77.70
13093;DHT22;6612;49.568;11.000;2022-10-16T02:49:00;19.30;77.70
13093;DHT22;6612;49.568;11.000;2022-10-16T02:51:27;19.30;77.70
13093;DHT22;6612;49.568;11.000;2022-10-16T02:53:54;19.30;77.70
13093;DHT22;6612;49.568;11.000;2022-10-16T02:56:21;19.30;77.80
13093;DHT22;6612;49.568;11.000;2022-10-16T02:58:48;19.30;77.80
13093;DHT22;6612;49.568;11.000;2022-10-16T03:01:15;19.30;77.70
13093;DHT22;6612;49.568;11.000;2022-10-16T03:03:42;19.30;77.80
13093;DHT22;6612;49.568;11.000;2022-10-16T03:06:11;19.30;77.80
13093;DHT22;6612;49.568;11.000;2022-10-16T03:08:38;19.30;77.70
13093;DHT22;6612;49.568;11.000;2022-10-16T03:11:05;19.30;77.80
13093;DHT22;6612;49.568;11.000;2022-10-16T03:13:32;19.30;77.80
13093;DHT22;6612;49.568;11.000;2022-10-16T03:15:59;19.30;77.70
13093;DHT22;6612;49.568;11.000;2022-10-16T03:18:26;19.30;77.70
13093;DHT22;6612;49.568;11.000;2022-10-16T03:20:53;19.30;77.70
13093;DHT22;6612;49.568;11.000;2022-10-16T03:23:21;19.30;77.70
13093;DHT22;6612;49.568;11.000;2022-10-16T03:25:48;19.30;77.60
13093;DHT22;6612;49.568;11.000;2022-10-16T03:28:15;19.30;77.70
13093;DHT22;6612;49.568;11.000;2022-10-16T03:30:43;19.30;77.70
13093;DHT22;6612;49.568;11.000;2022-10-16T03:33:10;19.30;77.70
13093;DHT22;6612;49.568;11.000;2022-10-16T03:35:37;19.30;77.70
13093;DHT22;6612;49.568;11.000;2022-10-16T03:38:04;19.30;77.70
13093;DHT22;6612;49.568;11.000;2022-10-16T03:40:32;19.30;77.70
13093;DHT22;6612;49.568;11.000;2022-10-16T03:42:59;19.20;77.50
13093;DHT22;6612;49.568;11.000;2022-10-16T03:45:26;19.20;77.60
13093;DHT22;6612;49.568;11.000;2022-10-16T03:47:53;19.20;77.60
13093;DHT22;6612;49.568;11.000;2022-10-16T03:50:20;19.20;77.70
13093;DHT22;6612;49.568;11.000;2022-10-16T03:52:47;19.20;77.80
13093;DHT22;6612;49.568;11.000;2022-10-16T03:55:14;19.20;77.90
13093;DHT22;6612;49.568;11.000;2022-10-16T03:57:43;19.20;77.90
13093;DHT22;6612;49.568;11.000;2022-10-16T04:00:11;19.20;77.90
13093;DHT22;6612;49.568;11.000;2022-10-16T04:02:38;19.20;77.90
13093;DHT22;6612;49.568;11.000;2022-10-16T04:05:06;19.20;78.00
13093;DHT22;6612;49.568;11.000;2022-10-16T04:07:33;19.20;78.00
13093;DHT22;6612;49.568;11.000;2022-10-16T04:10:00;19.20;77.90
13093;DHT22;6612;49.568;11.000;2022-10-16T04:12:27;19.20;78.00
13093;DHT22;6612;49.568;11.000;2022-10-16T04:14:55;19.20;78.10
13093;DHT22;6612;49.568;11.000;2022-10-16T04:17:22;19.20;78.10
13093;DHT22;6612;49.568;11.000;2022-10-16T04:19:49;19.20;78.20
13093;DHT22;6612;49.568;11.000;2022-10-16T04:22:16;19.20;78.30
13093;DHT22;6612;49.568;11.000;2022-10-16T04:24:43;19.20;78.30
13093;DHT22;6612;49.568;11.000;2022-10-16T04:27:10;19.20;78.40
13093;DHT22;6612;49.568;11.000;2022-10-16T04:29:37;19.60;78.80
13093;DHT22;6612;49.568;11.000;2022-10-16T04:32:07;19.20;78.30
13093;DHT22;6612;49.568;11.000;2022-10-16T04:34:35;19.20;78.20
13093;DHT22;6612;49.568;11.000;2022-10-16T04:37:03;19.20;78.30
13093;DHT22;6612;49.568;11.000;2022-10-16T04:39:30;19.20;78.30
13093;DHT22;6612;49.568;11.000;2022-10-16T04:41:57;19.20;78.30
13093;DHT22;6612;49.568;11.000;2022-10-16T04:44:24;19.20;77.50
13093;DHT22;6612;49.568;11.000;2022-10-16T04:46:51;19.20;78.30
13093;DHT22;6612;49.568;11.000;2022-10-16T04:49:19;19.20;78.20
13093;DHT22;6612;49.568;11.000;2022-10-16T04:51:46;19.20;78.10
13093;DHT22;6612;49.568;11.000;2022-10-16T04:54:13;19.00;77.70
13093;DHT22;6612;49.568;11.000;2022-10-16T04:56:40;19.20;78.20
13093;DHT22;6612;49.568;11.000;2022-10-16T04:59:12;19.20;78.20
13093;DHT22;6612;49.568;11.000;2022-10-16T05:01:40;19.20;78.30
13093;DHT22;6612;49.568;11.000;2022-10-16T05:04:07;19.20;78.30
13093;DHT22;6612;49.568;11.000;2022-10-16T05:06:36;19.20;78.30
13093;DHT22;6612;49.568;11.000;2022-10-16T05:09:04;19.20;78.20
13093;DHT22;6612;49.568;11.000;2022-10-16T05:11:31;19.20;78.30
13093;DHT22;6612;49.568;11.000;2022-10-16T05:13:58;19.20;78.30
13093;DHT22;6612;49.568;11.000;2022-10-16T05:16:25;19.20;78.20
13093;DHT22;6612;49.568;11.000;2022-10-16T05:18:53;19.20;78.20
13093;DHT22;6612;49.568;11.000;2022-10-16T05:21:20;19.20;78.20
13093;DHT22;6612;49.568;11.000;2022-10-16T05:23:48;19.20;78.00
13093;DHT22;6612;49.568;11.000;2022-10-16T05:26:15;19.10;77.90
13093;DHT22;6612;49.568;11.000;2022-10-16T05:28:42;19.10;77.80
13093;DHT22;6612;49.568;11.000;2022-10-16T05:31:09;19.10;77.80
13093;DHT22;6612;49.568;11.000;2022-10-16T05:33:36;19.10;77.80
13093;DHT22;6612;49.568;11.000;2022-10-16T05:36:05;19.10;77.90
13093;DHT22;6612;49.568;11.000;2022-10-16T05:38:33;19.00;77.80
13093;DHT22;6612;49.568;11.000;2022-10-16T05:41:01;19.00;78.00
13093;DHT22;6612;49.568;11.000;2022-10-16T05:43:29;19.00;78.10
13093;DHT22;6612;49.568;11.000;2022-10-16T05:45:56;19.00;78.40
13093;DHT22;6612;49.568;11.000;2022-10-16T05:48:24;19.00;78.50
13093;DHT22;6612;49.568;11.000;2022-10-16T05:50:57;19.00;78.60
13093;DHT22;6612;49.568;11.000;2022-10-16T05:53:24;19.00;78.60
13093;DHT22;6612;49.568;11.000;2022-10-16T05:55:52;19.00;78.70
13093;DHT22;6612;49.568;11.000;2022-10-16T05:58:21;19.00;78.70
13093;DHT22;6612;49.568;11.000;2022-10-16T06:00:55;19.10;78.80
13093;DHT22;6612;49.568;11.000;2022-10-16T06:03:23;19.10;78.80
13093;DHT22;6612;49.568;11.000;2022-10-16T06:05:50;19.10;79.00
13093;DHT22;6612;49.568;11.000;2022-10-16T06:08:17;19.00;79.00
13093;DHT22;6612;49.568;11.000;2022-10-16T06:10:45;19.10;79.20
13093;DHT22;6612;49.568;11.000;2022-10-16T06:13:12;19.10;79.30
13093;DHT22;6612;49.568;11.000;2022-10-16T06:15:42;19.10;79.40
13093;DHT22;6612;49.568;11.000;2022-10-16T06:18:09;19.20;80.10
13093;DHT22;6612;49.568;11.000;2022-10-16T06:20:36;19.20;79.40
13093;DHT22;6612;49.568;11.000;2022-10-16T06:23:04;19.20;79.30
13093;DHT22;6612;49.568;11.000;2022-10-16T06:25:31;19.20;79.20
13093;DHT22;6612;49.568;11.000;2022-10-16T06:27:58;19.20;79.20
13093;DHT22;6612;49.568;11.000;2022-10-16T06:30:25;19.30;79.10
13093;DHT22;6612;49.568;11.000;2022-10-16T06:32:53;19.30;79.00
13093;DHT22;6612;49.568;11.000;2022-10-16T06:35:20;19.30;78.90
13093;DHT22;6612;49.568;11.000;2022-10-16T06:37:47;19.30;79.00
13093;DHT22;6612;49.568;11.000;2022-10-16T06:40:14;19.30;79.00
13093;DHT22;6612;49.568;11.000;2022-10-16T06:42:41;19.30;79.20
13093;DHT22;6612;49.568;11.000;2022-10-16T06:45:09;19.30;79.70
13093;DHT22;6612;49.568;11.000;2022-10-16T06:47:36;19.40;80.00
13093;DHT22;6612;49.568;11.000;2022-10-16T06:50:06;19.40;79.90
13093;DHT22;6612;49.568;11.000;2022-10-16T06:52:33;19.50;79.70
13093;DHT22;6612;49.568;11.000;2022-10-16T06:55:01;19.50;79.60
13093;DHT22;6612;49.568;11.000;2022-10-16T06:57:28;19.50;79.30
13093;DHT22;6612;49.568;11.000;2022-10-16T06:59:55;19.50;79.10
13093;DHT22;6612;49.568;11.000;2022-10-16T07:02:22;19.50;78.90
13093;DHT22;6612;49.568;11.000;2022-10-16T07:04:49;19.60;79.00
13093;DHT22;6612;49.568;11.000;2022-10-16T07:07:18;19.60;79.00
13093;DHT22;6612;49.568;11.000;2022-10-16T07:09:45;19.60;78.90
13093;DHT22;6612;49.568;11.000;2022-10-16T07:12:11;19.60;79.70
13093;DHT22;6612;49.568;11.000;2022-10-16T07:14:38;19.60;79.10
13093;DHT22;6612;49.568;11.000;2022-10-16T07:17:05;19.60;79.10
13093;DHT22;6612;49.568;11.000;2022-10-16T07:19:32;19.60;79.20
13093;DHT22;6612;49.568;11.000;2022-10-16T07:21:59;19.60;79.20
13093;DHT22;6612;49.568;11.000;2022-10-16T07:24:28;19.70;78.50
13093;DHT22;6612;49.568;11.000;2022-10-16T07:26:55;19.70;79.20
13093;DHT22;6612;49.568;11.000;2022-10-16T07:29:22;19.70;79.30
13093;DHT22;6612;49.568;11.000;2022-10-16T07:31:49;19.70;79.50
13093;DHT22;6612;49.568;11.000;2022-10-16T07:34:17;19.90;79.60
13093;DHT22;6612;49.568;11.000;2022-10-16T07:36:46;19.70;79.60
13093;DHT22;6612;49.568;11.000;2022-10-16T07:39:13;19.80;79.80
13093;DHT22;6612;49.568;11.000;2022-10-16T07:41:42;19.80;79.50
13093;DHT22;6612;49.568;11.000;2022-10-16T07:44:09;19.80;79.20
13093;DHT22;6612;49.568;11.000;2022-10-16T07:46:36;19.90;79.60
13093;DHT22;6612;49.568;11.000;2022-10-16T07:49:03;19.90;79.80
13093;DHT22;6612;49.568;11.000;2022-10-16T07:51:30;20.00;80.00
13093;DHT22;6612;49.568;11.000;2022-10-16T07:53:57;20.00;80.20
13093;DHT22;6612;49.568;11.000;2022-10-16T07:56:24;20.00;80.20
13093;DHT22;6612;49.568;11.000;2022-10-16T07:58:52;20.10;80.30
13093;DHT22;6612;49.568;11.000;2022-10-16T08:01:20;20.20;80.30
13093;DHT22;6612;49.568;11.000;2022-10-16T08:03:49;20.20;80.60
13093;DHT22;6612;49.568;11.000;2022-10-16T08:06:17;20.30;81.00
13093;DHT22;6612;49.568;11.000;2022-10-16T08:08:44;20.40;81.10
13093;DHT22;6612;49.568;11.000;2022-10-16T08:11:11;20.50;80.90
13093;DHT22;6612;49.568;11.000;2022-10-16T08:13:39;20.50;80.70
13093;DHT22;6612;49.568;11.000;2022-10-16T08:16:08;20.60;80.30
13093;DHT22;6612;49.568;11.000;2022-10-16T08:18:35;20.70;79.70
13093;DHT22;6612;49.568;11.000;2022-10-16T08:21:04;20.70;79.50
13093;DHT22;6612;49.568;11.000;2022-10-16T08:23:32;20.70;79.00
13093;DHT22;6612;49.568;11.000;2022-10-16T08:26:03;20.80;78.80
13093;DHT22;6612;49.568;11.000;2022-10-16T08:28:31;20.80;78.50
13093;DHT22;6612;49.568;11.000;2022-10-16T08:31:05;20.90;79.00
13093;DHT22;6612;49.568;11.000;2022-10-16T08:33:34;20.90;78.00
13093;DHT22;6612;49.568;11.000;2022-10-16T08:36:02;21.00;79.00
13093;DHT22;6612;49.568;11.000;2022-10-16T08:38:29;21.10;79.70
13093;DHT22;6612;49.568;11.000;2022-10-16T08:41:08;21.20;80.30
13093;DHT22;6612;49.568;11.000;2022-10-16T08:43:56;21.30;79.90
13093;DHT22;6612;49.568;11.000;2022-10-16T08:46:39;21.50;80.70
13093;DHT22;6612;49.568;11.000;2022-10-16T08:49:12;21.60;79.00
13093;DHT22;6612;49.568;11.000;2022-10-16T08:51:40;21.80;80.00
13093;DHT22;6612;49.568;11.000;2022-10-16T08:54:21;21.90;80.30
13093;DHT22;6612;49.568;11.000;2022-10-16T08:56:49;22.00;78.00
13093;DHT22;6612;49.568;11.000;2022-10-16T08:59:16;22.10;78.30
13093;DHT22;6612;49.568;11.000;2022-10-16T09:01:46;22.20;77.80
13093;DHT22;6612;49.568;11.000;2022-10-16T09:04:45;22.30;76.90
13093;DHT22;6612;49.568;11.000;2022-10-16T09:07:19;22.30;75.80
13093;DHT22;6612;49.568;11.000;2022-10-16T09:10:07;22.40;77.20
13093;DHT22;6612;49.568;11.000;2022-10-16T09:12:39;22.50;75.70
13093;DHT22;6612;49.568;11.000;2022-10-16T09:15:20;22.60;76.70
13093;DHT22;6612;49.568;11.000;2022-10-16T09:17:55;22.70;76.30
13093;DHT22;6612;49.568;11.000;2022-10-16T09:20:32;22.80;76.80
13093;DHT22;6612;49.568;11.000;2022-10-16T09:23:17;22.90;75.90
13093;DHT22;6612;49.568;11.000;2022-10-16T09:25:47;22.90;74.80
13093;DHT22;6612;49.568;11.000;2022-10-16T09:28:15;23.00;76.10
13093;DHT22;6612;49.568;11.000;2022-10-16T09:30:43;23.00;75.30
13093;DHT22;6612;49.568;11.000;2022-10-16T09:33:12;23.10;75.30
13093;DHT22;6612;49.568;11.000;2022-10-16T09:35:42;23.10;74.90
13093;DHT22;6612;49.568;11.000;2022-10-16T09:38:21;23.10;73.70
13093;DHT22;6612;49.568;11.000;2022-10-16T09:40:48;23.20;72.70
13093;DHT22;6612;49.568;11.000;2022-10-16T09:43:22;23.20;73.90
13093;DHT22;6612;49.568;11.000;2022-10-16T09:45:58;23.10;72.70
13093;DHT22;6612;49.568;11.000;2022-10-16T09:48:29;23.10;72.50
13093;DHT22;6612;49.568;11.000;2022-10-16T09:51:01;23.30;72.90
13093;DHT22;6612;49.568;11.000;2022-10-16T09:53:42;23.10;72.80
13093;DHT22;6612;49.568;11.000;2022-10-16T09:56:11;23.10;71.40
13093;DHT22;6612;49.568;11.000;2022-10-16T09:58:42;23.00;72.30
13093;DHT22;6612;49.568;11.000;2022-10-16T10:01:13;23.00;72.40
13093;DHT22;6612;49.568;11.000;2022-10-16T10:03:42;23.00;72.50
13093;DHT22;6612;49.568;11.000;2022-10-16T10:06:21;23.00;73.10
13093;DHT22;6612;49.568;11.000;2022-10-16T10:09:00;23.00;72.50
13093;DHT22;6612;49.568;11.000;2022-10-16T10:11:39;23.10;72.50
13093;DHT22;6612;49.568;11.000;2022-10-16T10:14:18;23.10;72.70
13093;DHT22;6612;49.568;11.000;2022-10-16T10:16:46;23.10;73.10
13093;DHT22;6612;49.568;11.000;2022-10-16T10:19:16;23.20;73.50
13093;DHT22;6612;49.568;11.000;2022-10-16T10:21:45;23.20;72.80
13093;DHT22;6612;49.568;11.000;2022-10-16T10:24:12;24.90;74.00
13093;DHT22;6612;49.568;11.000;2022-10-16T10:26:48;23.30;72.90
13093;DHT22;6612;49.568;11.000;2022-10-16T10:29:27;23.40;72.10
13093;DHT22;6612;49.568;11.000;2022-10-16T10:32:05;23.40;71.90
13093;DHT22;6612;49.568;11.000;2022-10-16T10:34:56;23.50;71.10
13093;DHT22;6612;49.568;11.000;2022-10-16T10:37:40;23.60;71.80
13093;DHT22;6612;49.568;11.000;2022-10-16T10:40:19;23.60;71.00
13093;DHT22;6612;49.568;11.000;2022-10-16T10:42:55;23.70;71.30
13093;DHT22;6612;49.568;11.000;2022-10-16T10:45:26;23.70;71.20
13093;DHT22;6612;49.568;11.000;2022-10-16T10:48:03;23.70;70.70
13093;DHT22;6612;49.568;11.000;2022-10-16T10:50:39;23.70;69.70
13093;DHT22;6612;49.568;11.000;2022-10-16T10:53:18;23.80;70.00
13093;DHT22;6612;49.568;11.000;2022-10-16T10:55:54;23.80;69.30
13093;DHT22;6612;49.568;11.000;2022-10-16T10:58:56;23.80;69.90
13093;DHT22;6612;49.568;11.000;2022-10-16T11:01:31;23.80;69.40
13093;DHT22;6612;49.568;11.000;2022-10-16T11:04:15;23.90;70.20
13093;DHT22;6612;49.568;11.000;2022-10-16T11:06:52;24.00;70.10
13093;DHT22;6612;49.568;11.000;2022-10-16T11:09:25;24.00;70.60
13093;DHT22;6612;49.568;11.000;2022-10-16T11:11:56;24.00;70.30
13093;DHT22;6612;49.568;11.000;2022-10-16T11:14:28;24.20;70.90
13093;DHT22;6612;49.568;11.000;2022-10-16T11:16:59;24.10;70.20
13093;DHT22;6612;49.568;11.000;2022-10-16T11:19:35;24.20;70.20
13093;DHT22;6612;49.568;11.000;2022-10-16T11:22:07;24.20;69.50
13093;DHT22;6612;49.568;11.000;2022-10-16T11:24:42;24.30;70.20
13093;DHT22;6612;49.568;11.000;2022-10-16T11:27:17;24.30;69.70
13093;DHT22;6612;49.568;11.000;2022-10-16T11:29:52;24.40;69.50
13093;DHT22;6612;49.568;11.000;2022-10-16T11:32:25;24.40;68.50
13093;DHT22;6612;49.568;11.000;2022-10-16T11:34:59;24.50;69.20
13093;DHT22;6612;49.568;11.000;2022-10-16T11:37:30;24.50;69.10
13093;DHT22;6612;49.568;11.000;2022-10-16T11:40:09;24.50;69.00
13093;DHT22;6612;49.568;11.000;2022-10-16T11:42:46;24.50;68.40
13093;DHT22;6612;49.568;11.000;2022-10-16T11:45:24;24.50;68.40
13093;DHT22;6612;49.568;11.000;2022-10-16T11:47:58;24.50;67.70
13093;DHT22;6612;49.568;11.000;2022-10-16T11:50:33;24.50;68.60
13093;DHT22;6612;49.568;11.000;2022-10-16T11:53:04;24.60;68.20
13093;DHT22;6612;49.568;11.000;2022-10-16T11:55:40;24.60;68.60
13093;DHT22;6612;49.568;11.000;2022-10-16T11:58:13;24.60;68.10
13093;DHT22;6612;49.568;11.000;2022-10-16T12:00:46;24.60;68.30
13093;DHT22;6612;49.568;11.000;2022-10-16T12:03:20;24.60;67.80
13093;DHT22;6612;49.568;11.000;2022-10-16T12:05:58;24.60;68.20
13093;DHT22;6612;49.568;11.000;2022-10-16T12:08:27;24.70;68.10
13093;DHT22;6612;49.568;11.000;2022-10-16T12:11:07;24.70;69.10
13093;DHT22;6612;49.568;11.000;2022-10-16T12:13:36;24.80;68.00
13093;DHT22;6612;49.568;11.000;2022-10-16T12:16:20;24.90;69.10
13093;DHT22;6612;49.568;11.000;2022-10-16T12:18:47;25.00;68.80
13093;DHT22;6612;49.568;11.000;2022-10-16T12:21:16;25.10;69.10
13093;DHT22;6612;49.568;11.000;2022-10-16T12:23:49;25.20;68.60
13093;DHT22;6612;49.568;11.000;2022-10-16T12:26:25;25.30;67.90
13093;DHT22;6612;49.568;11.000;2022-10-16T12:28:54;25.30;67.20
13093;DHT22;6612;49.568;11.000;2022-10-16T12:31:21;25.40;68.10
13093;DHT22;6612;49.568;11.000;2022-10-16T12:33:57;25.50;68.10
13093;DHT22;6612;49.568;11.000;2022-10-16T12:36:30;25.50;66.30
13093;DHT22;6612;49.568;11.000;2022-10-16T12:38:58;25.60;66.20
13093;DHT22;6612;49.568;11.000;2022-10-16T12:41:28;25.50;66.40
13093;DHT22;6612;49.568;11.000;2022-10-16T12:43:56;25.50;65.60
13093;DHT22;6612;49.568;11.000;2022-10-16T12:46:34;25.50;66.10
13093;DHT22;6612;49.568;11.000;2022-10-16T12:49:17;25.50;64.70
13093;DHT22;6612;49.568;11.000;2022-10-16T12:51:46;25.40;65.20
13093;DHT22;6612;49.568;11.000;2022-10-16T12:54:15;25.30;65.00
13093;DHT22;6612;49.568;11.000;2022-10-16T12:56:52;25.30;65.30
13093;DHT22;6612;49.568;11.000;2022-10-16T12:59:28;25.30;64.60
13093;DHT22;6612;49.568;11.000;2022-10-16T13:02:17;25.20;64.60
13093;DHT22;6612;49.568;11.000;2022-10-16T13:04:58;25.10;63.50
13093;DHT22;6612;49.568;11.000;2022-10-16T13:07:50;25.00;64.30
13093;DHT22;6612;49.568;11.000;2022-10-16T13:10:25;25.00;63.80
13093;DHT22;6612;49.568;11.000;2022-10-16T13:13:17;24.90;64.40
13093;DHT22;6612;49.568;11.000;2022-10-16T13:16:02;24.80;64.20
13093;DHT22;6612;49.568;11.000;2022-10-16T13:18:41;24.80;64.90
13093;DHT22;6612;49.568;11.000;2022-10-16T13:21:21;24.70;65.70
13093;DHT22;6612;49.568;11.000;2022-10-16T13:24:00;24.80;65.70
13093;DHT22;6612;49.568;11.000;2022-10-16T13:26:35;24.80;65.40
13093;DHT22;6612;49.568;11.000;2022-10-16T13:29:06;24.80;65.60
13093;DHT22;6612;49.568;11.000;2022-10-16T13:31:33;24.80;65.80
13093;DHT22;6612;49.568;11.000;2022-10-16T13:34:01;24.80;65.80
13093;DHT22;6612;49.568;11.000;2022-10-16T13:36:29;24.90;66.60
13093;DHT22;6612;49.568;11.000;2022-10-16T13:39:03;24.90;65.80
13093;DHT22;6612;49.568;11.000;2022-10-16T13:41:33;24.90;65.20
13093;DHT22;6612;49.568;11.000;2022-10-16T13:44:00;24.90;65.50
13093;DHT22;6612;49.568;11.000;2022-10-16T13:46:28;24.90;65.30
13093;DHT22;6612;49.568;11.000;2022-10-16T13:49:00;24.90;65.10
13093;DHT22;6612;49.568;11.000;2022-10-16T13:51:28;24.80;64.80
13093;DHT22;6612;49.568;11.000;2022-10-16T13:53:56;24.80;65.50
13093;DHT22;6612;49.568;11.000;2022-10-16T13:56:26;24.80;64.60
13093;DHT22;6612;49.568;11.000;2022-10-16T13:59:00;24.70;64.30
13093;DHT22;6612;49.568;11.000;2022-10-16T14:01:30;24.70;63.70
13093;DHT22;6612;49.568;11.000;2022-10-16T14:04:04;24.70;64.20
13093;DHT22;6612;49.568;11.000;2022-10-16T14:06:32;24.70;63.90
13093;DHT22;6612;49.568;11.000;2022-10-16T14:09:02;24.60;64.20
13093;DHT22;6612;49.568;11.000;2022-10-16T14:11:33;24.60;64.00
13093;DHT22;6612;49.568;11.000;2022-10-16T14:14:00;24.50;64.10
13093;DHT22;6612;49.568;11.000;2022-10-16T14:16:31;24.50;64.40
13093;DHT22;6612;49.568;11.000;2022-10-16T14:19:01;24.50;63.90
13093;DHT22;6612;49.568;11.000;2022-10-16T14:21:29;24.50;64.10
13093;DHT22;6612;49.568;11.000;2022-10-16T14:23:57;24.40;64.30
13093;DHT22;6612;49.568;11.000;2022-10-16T14:26:26;24.40;64.30
13093;DHT22;6612;49.568;11.000;2022-10-16T14:29:12;24.40;63.90
13093;DHT22;6612;49.568;11.000;2022-10-16T14:31:41;24.40;63.00
13093;DHT22;6612;49.568;11.000;2022-10-16T14:34:25;24.30;64.00
13093;DHT22;6612;49.568;11.000;2022-10-16T14:36:53;24.30;62.80
13093;DHT22;6612;49.568;11.000;2022-10-16T14:39:22;24.30;64.10
13093;DHT22;6612;49.568;11.000;2022-10-16T14:41:50;24.30;64.10
13093;DHT22;6612;49.568;11.000;2022-10-16T14:44:18;24.20;63.70
13093;DHT22;6612;49.568;11.000;2022-10-16T14:46:51;24.20;64.00
13093;DHT22;6612;49.568;11.000;2022-10-16T14:49:19;24.20;63.90
13093;DHT22;6612;49.568;11.000;2022-10-16T14:51:47;24.20;64.00
13093;DHT22;6612;49.568;11.000;2022-10-16T14:54:15;24.10;63.80
13093;DHT22;6612;49.568;11.000;2022-10-16T14:56:46;24.10;64.30
13093;DHT22;6612;49.568;11.000;2022-10-16T14:59:17;24.10;64.10
13093;DHT22;6612;49.568;11.000;2022-10-16T15:01:45;24.10;64.20
13093;DHT22;6612;49.568;11.000;2022-10-16T15:04:14;24.10;64.30
13093;DHT22;6612;49.568;11.000;2022-10-16T15:06:42;24.10;64.60
13093;DHT22;6612;49.568;11.000;2022-10-16T15:09:09;24.10;65.00
13093;DHT22;6612;49.568;11.000;2022-10-16T15:11:37;24.20;65.20
13093;DHT22;6612;49.568;11.000;2022-10-16T15:14:04;24.20;65.10
13093;DHT22;6612;49.568;11.000;2022-10-16T15:16:32;24.20;65.10
13093;DHT22;6612;49.568;11.000;2022-10-16T15:18:59;24.20;65.00
13093;DHT22;6612;49.568;11.000;2022-10-16T15:21:29;24.20;65.00
13093;DHT22;6612;49.568;11.000;2022-10-16T15:23:57;24.20;64.60
13093;DHT22;6612;49.568;11.000;2022-10-16T15:26:25;24.10;64.70
13093;DHT22;6612;49.568;11.000;2022-10-16T15:28:52;24.10;64.90
13093;DHT22;6612;49.568;11.000;2022-10-16T15:31:20;24.10;65.10
13093;DHT22;6612;49.568;11.000;2022-10-16T15:33:49;24.10;65.20
13093;DHT22;6612;49.568;11.000;2022-10-16T15:36:26;24.00;65.10
13093;DHT22;6612;49.568;11.000;2022-10-16T15:38:53;24.00;65.90
13093;DHT22;6612;49.568;11.000;2022-10-16T15:41:21;24.00;65.60
13093;DHT22;6612;49.568;11.000;2022-10-16T15:43:49;23.90;65.70
13093;DHT22;6612;49.568;11.000;2022-10-16T15:46:18;23.90;66.00
13093;DHT22;6612;49.568;11.000;2022-10-16T15:48:46;23.90;66.10
13093;DHT22;6612;49.568;11.000;2022-10-16T15:51:13;23.80;66.30